Time;durP1;ratioP1;P1;durP2;ratioP2;P2;SDS_P1;SDS_P2;PMS_P1;PMS_P2;Temp;Humidity;BMP_temperature;BMP_pressure;BME280_temperature;BME280_humidity;BME280_pressure;Samples;Min_cycle;Max_cycle;Signal;HPM_P1;HPM_P2
2022/06/22 00:01:38;;;;;;;16.33;9.45;;;;;;;20.82;100.00;101326.44;4975944;28;20297;-51
2022/06/22 00:04:06;;;;;;;18.27;9.63;;;;;;;21.33;100.00;101318.84;4971445;28;20043;-53
2022/06/22 00:06:39;;;;;;;20.53;9.10;;;;;;;21.26;100.00;101323.69;4971725;28;20340;-50
2022/06/22 00:09:05;;;;;;;20.77;9.90;;;;;;;20.84;100.00;101316.13;4972667;28;20361;-49
2022/06/22 00:11:33;;;;;;;20.40;9.87;;;;;;;20.86;100.00;101313.97;4976423;28;20261;-50
2022/06/22 00:14:02;;;;;;;18.73;10.80;;;;;;;20.22;100.00;101307.09;4974187;28;20316;-54
2022/06/22 00:16:36;;;;;;;19.27;10.07;;;;;;;20.20;100.00;101302.75;4973236;28;20265;-52
2022/06/22 00:19:16;;;;;;;19.87;10.77;;;;;;;20.56;100.00;101307.06;4975418;28;20341;-50
2022/06/22 00:21:42;;;;;;;20.90;10.03;;;;;;;20.03;100.00;101301.94;4977303;28;20337;-48
2022/06/22 00:24:23;;;;;;;17.00;10.40;;;;;;;20.54;100.00;101295.63;4985666;28;20304;-50
2022/06/22 00:26:59;;;;;;;15.77;10.00;;;;;;;20.25;100.00;101298.47;4981428;28;20074;-51
2022/06/22 00:29:34;;;;;;;21.42;9.68;;;;;;;20.33;100.00;101289.91;4978348;28;20304;-51
2022/06/22 00:32:03;;;;;;;19.43;9.93;;;;;;;20.28;100.00;101297.97;4981662;28;20047;-52
2022/06/22 00:34:33;;;;;;;18.27;9.30;;;;;;;20.31;100.00;101282.00;4978916;28;20269;-50
2022/06/22 00:37:13;;;;;;;18.23;9.53;;;;;;;20.56;100.00;101269.81;4980577;28;20275;-52
2022/06/22 00:39:45;;;;;;;17.33;9.87;;;;;;;20.17;100.00;101276.09;4979541;28;20257;-49
2022/06/22 00:42:18;;;;;;;13.10;8.33;;;;;;;20.08;100.00;101283.03;4980126;28;20281;-51
2022/06/22 00:45:03;;;;;;;16.73;9.70;;;;;;;19.84;100.00;101277.75;4975698;28;20282;-53
2022/06/22 00:48:04;;;;;;;16.07;8.70;;;;;;;19.83;100.00;101270.66;4977089;28;20265;-53
2022/06/22 00:50:40;;;;;;;15.00;8.57;;;;;;;19.91;100.00;101278.44;4976234;28;20276;-51
2022/06/22 00:53:32;;;;;;;20.63;9.02;;;;;;;20.06;100.00;101279.72;4975576;28;20273;-52
2022/06/22 00:56:15;;;;;;;17.37;8.07;;;;;;;19.92;100.00;101279.25;4968555;28;20089;-49
2022/06/22 00:59:00;;;;;;;21.67;8.70;;;;;;;19.76;100.00;101280.88;4976354;28;20268;-53
2022/06/22 01:01:44;;;;;;;17.60;9.40;;;;;;;19.46;100.00;101273.88;4974685;28;20300;-51
2022/06/22 01:04:18;;;;;;;22.83;9.17;;;;;;;19.52;100.00;101275.59;4973415;28;20268;-52
2022/06/22 01:06:55;;;;;;;16.53;8.73;;;;;;;19.34;100.00;101280.16;4977249;28;20282;-53
2022/06/22 01:09:30;;;;;;;19.17;7.97;;;;;;;19.49;100.00;101265.22;4973917;28;20278;-48
2022/06/22 01:12:16;;;;;;;22.93;9.37;;;;;;;19.47;100.00;101256.53;4980887;28;20355;-53
2022/06/22 01:14:54;;;;;;;20.60;8.73;;;;;;;19.48;100.00;101255.47;4978056;28;20272;-50
2022/06/22 01:17:28;;;;;;;19.90;8.73;;;;;;;19.58;100.00;101243.97;4974458;28;20339;-52
2022/06/22 01:20:05;;;;;;;13.87;8.53;;;;;;;19.41;100.00;101246.66;4980041;28;20273;-51
2022/06/22 01:22:31;;;;;;;;;;;;;;;19.65;100.00;101251.94;4981073;28;20341;-49
2022/06/22 01:25:19;;;;;;;15.73;9.17;;;;;;;19.57;100.00;101264.81;4976987;28;19918;-53
2022/06/22 01:27:45;;;;;;;22.43;9.70;;;;;;;19.51;100.00;101268.53;4976201;28;20139;-51
2022/06/22 01:30:32;;;;;;;17.95;8.90;;;;;;;19.57;100.00;101270.25;4970186;28;20316;-54
2022/06/22 01:33:00;;;;;;;18.77;8.35;;;;;;;19.46;100.00;101279.28;4971269;28;20085;-51
2022/06/22 01:35:37;;;;;;;24.07;10.30;;;;;;;19.52;100.00;101281.00;4975838;28;20042;-47
2022/06/22 01:38:25;;;;;;;21.43;9.17;;;;;;;19.63;100.00;101279.31;4971752;28;20341;-52
2022/06/22 01:41:06;;;;;;;22.48;8.70;;;;;;;19.62;100.00;101278.50;4978332;28;20346;-50
2022/06/22 01:43:44;;;;;;;26.30;9.23;;;;;;;19.49;100.00;101268.78;4975169;28;20065;-48
2022/06/22 01:46:31;;;;;;;14.07;8.37;;;;;;;19.45;100.00;101258.66;4975594;28;20277;-54
2022/06/22 01:49:04;;;;;;;13.93;8.63;;;;;;;19.42;100.00;101267.28;4975418;28;20273;-54
2022/06/22 01:51:34;;;;;;;22.03;9.50;;;;;;;19.50;100.00;101261.44;4974018;28;20257;-52
2022/06/22 01:54:15;;;;;;;16.20;9.20;;;;;;;19.32;100.00;101266.03;4974584;28;20269;-49
2022/06/22 01:56:48;;;;;;;20.23;9.67;;;;;;;19.31;100.00;101272.53;4975776;28;20292;-50
2022/06/22 01:59:40;;;;;;;15.00;8.47;;;;;;;19.23;100.00;101275.63;4979848;28;20270;-53
2022/06/22 02:02:11;;;;;;;20.20;9.67;;;;;;;19.18;100.00;101270.13;4979588;28;20264;-49
2022/06/22 02:04:52;;;;;;;21.40;9.40;;;;;;;18.95;100.00;101266.41;4976052;28;20262;-50
2022/06/22 02:10:29;;;;;;;16.77;9.98;;;;;;;19.19;100.00;101278.00;4978522;28;20265;-50
2022/06/22 02:13:07;;;;;;;17.80;10.57;;;;;;;19.00;100.00;101266.53;4977799;28;20082;-48
2022/06/22 02:15:39;;;;;;;20.60;10.17;;;;;;;18.99;100.00;101262.19;4978954;28;20295;-50
2022/06/22 02:18:12;;;;;;;21.50;11.67;;;;;;;18.93;100.00;101257.72;4968340;28;20272;-47
2022/06/22 02:20:39;;;;;;;19.53;11.33;;;;;;;19.03;100.00;101255.22;4973603;28;20265;-51
2022/06/22 02:23:44;;;;;;;21.10;11.25;;;;;;;18.85;100.00;101252.66;4978706;28;20277;-49
2022/06/22 02:26:22;;;;;;;29.40;11.40;;;;;;;18.94;100.00;101245.81;4907035;29;20050;-48
2022/06/22 02:28:49;;;;;;;19.00;11.17;;;;;;;18.99;100.00;101245.94;4907621;29;20292;-55
2022/06/22 02:31:18;;;;;;;20.60;10.33;;;;;;;19.00;100.00;101241.31;4948197;28;20281;-50
2022/06/22 02:33:48;;;;;;;17.10;10.63;;;;;;;18.80;100.00;101236.31;4977314;28;20278;-53
2022/06/22 02:36:14;;;;;;;19.20;10.00;;;;;;;18.95;100.00;101236.59;4971262;28;20277;-52
2022/06/22 02:38:42;;;;;;;24.23;12.07;;;;;;;18.81;100.00;101232.53;4981312;28;20284;-51
2022/06/22 02:46:40;;;;;;;19.37;10.20;;;;;;;18.82;100.00;101229.59;4975229;28;20343;-55
2022/06/22 02:49:29;;;;;;;19.63;10.47;;;;;;;18.72;100.00;101215.81;4974271;28;20277;-53
2022/06/22 02:51:54;;;;;;;19.90;10.67;;;;;;;18.60;100.00;101215.88;4976004;28;20274;-50
2022/06/22 02:54:26;;;;;;;17.57;11.27;;;;;;;18.63;100.00;101204.53;4978112;28;20346;-49
2022/06/22 02:57:28;;;;;;;27.03;12.40;;;;;;;18.61;100.00;101206.69;4977018;28;20030;-48
2022/06/22 02:59:54;;;;;;;18.40;10.83;;;;;;;18.84;100.00;101199.53;4988329;28;20315;-49
2022/06/22 03:02:23;;;;;;;28.03;13.43;;;;;;;18.91;100.00;101198.31;4972728;28;20307;-49
2022/06/22 03:04:50;;;;;;;36.30;11.43;;;;;;;18.84;100.00;101184.09;4967310;28;20296;-49
2022/06/22 03:07:19;;;;;;;16.27;10.93;;;;;;;19.14;100.00;101187.63;4968396;28;20273;-54
2022/06/22 03:09:46;;;;;;;25.57;12.37;;;;;;;19.13;100.00;101177.84;4972444;28;20257;-53
2022/06/22 03:12:13;;;;;;;22.13;11.57;;;;;;;18.54;100.00;101190.56;4977136;28;20300;-50
2022/06/22 03:14:45;;;;;;;21.33;12.33;;;;;;;18.75;100.00;101190.97;4974732;28;20363;-51
2022/06/22 03:17:16;;;;;;;16.87;10.93;;;;;;;18.78;100.00;101193.19;4971629;28;20278;-54
2022/06/22 03:19:41;;;;;;;19.33;12.17;;;;;;;18.40;100.00;101203.56;4973937;28;20261;-49
2022/06/22 03:22:12;;;;;;;25.30;13.67;;;;;;;18.42;100.00;101197.91;4972085;28;20281;-50
2022/06/22 03:24:46;;;;;;;18.37;11.80;;;;;;;18.57;100.00;101195.53;4974608;28;20040;-54
2022/06/22 03:27:18;;;;;;;29.90;13.27;;;;;;;18.34;100.00;101204.50;4976233;28;20280;-53
2022/06/22 03:29:51;;;;;;;21.57;12.27;;;;;;;18.80;100.00;101214.63;4975453;28;20276;-52
2022/06/22 03:32:30;;;;;;;26.03;13.27;;;;;;;18.46;100.00;101229.69;4977484;28;20352;-54
2022/06/22 03:35:11;;;;;;;25.37;13.77;;;;;;;18.32;100.00;101236.41;4979156;28;20299;-48
2022/06/22 03:37:49;;;;;;;22.60;13.10;;;;;;;18.47;100.00;101239.47;4974560;28;20299;-48
2022/06/22 03:40:40;;;;;;;26.90;13.53;;;;;;;18.24;100.00;101239.50;4975113;28;20300;-49
2022/06/22 03:43:14;;;;;;;26.00;13.40;;;;;;;18.30;100.00;101238.53;4976745;28;20262;-48
2022/06/22 03:45:47;;;;;;;24.50;13.07;;;;;;;18.20;100.00;101239.94;4975248;28;20300;-53
2022/06/22 03:48:24;;;;;;;23.60;12.47;;;;;;;18.23;100.00;101235.16;4972330;28;20277;-50
2022/06/22 03:50:55;;;;;;;24.08;12.30;;;;;;;18.19;100.00;101234.78;4971083;28;20297;-52
2022/06/22 03:53:39;;;;;;;67.63;30.57;;;;;;;18.43;100.00;101227.44;4970066;28;20039;-50
2022/06/22 03:56:10;;;;;;;58.03;28.63;;;;;;;18.40;100.00;101233.34;4975517;28;20287;-51
2022/06/22 03:58:37;;;;;;;31.50;16.63;;;;;;;18.73;100.00;101223.72;4975815;28;20329;-53
2022/06/22 04:01:04;;;;;;;29.23;15.93;;;;;;;18.33;100.00;101227.25;4977460;28;20273;-49
2022/06/22 04:03:29;;;;;;;;;;;;;;;18.88;100.00;101217.78;4976885;28;20265;-49
2022/06/22 04:05:57;;;;;;;33.60;20.33;;;;;;;18.67;100.00;101216.53;4980507;28;19918;-51
2022/06/22 04:08:26;;;;;;;37.77;20.17;;;;;;;18.83;100.00;101225.81;4980185;28;20065;-49
2022/06/22 04:11:09;;;;;;;79.70;38.83;;;;;;;18.87;100.00;101216.13;4980765;28;20329;-49
2022/06/22 04:13:40;;;;;;;28.40;17.13;;;;;;;19.13;100.00;101215.78;4976901;28;20310;-53
2022/06/22 04:16:10;;;;;;;38.90;19.27;;;;;;;18.94;100.00;101212.44;4979456;28;20300;-51
2022/06/22 04:18:52;;;;;;;29.93;15.10;;;;;;;19.03;100.00;101208.28;4972087;28;20286;-51
2022/06/22 04:21:24;;;;;;;26.67;15.37;;;;;;;18.98;100.00;101200.91;4977740;28;20272;-54
2022/06/22 04:24:11;;;;;;;30.77;15.90;;;;;;;19.08;100.00;101200.28;4978696;28;20312;-50
2022/06/22 04:26:47;;;;;;;26.70;15.10;;;;;;;19.13;100.00;101196.81;4981014;28;20287;-50
2022/06/22 04:29:20;;;;;;;23.73;14.52;;;;;;;19.08;100.00;101213.84;4977973;28;20273;-54
2022/06/22 04:31:55;;;;;;;26.30;11.87;;;;;;;19.34;100.00;101209.66;4980598;28;20054;-49
2022/06/22 04:35:06;;;;;;;23.47;11.53;;;;;;;19.20;100.00;101217.28;4976880;28;20274;-53
2022/06/22 04:37:41;;;;;;;19.77;12.60;;;;;;;19.22;100.00;101217.06;4972452;28;20290;-49
2022/06/22 04:40:31;;;;;;;21.60;11.93;;;;;;;19.10;100.00;101222.53;4975065;28;20336;-50
2022/06/22 04:43:01;;;;;;;26.87;10.63;;;;;;;19.04;100.00;101210.78;4977795;28;20294;-53
2022/06/22 04:45:31;;;;;;;43.50;12.43;;;;;;;19.13;100.00;101216.63;4975556;28;20281;-49
2022/06/22 04:48:03;;;;;;;22.60;12.93;;;;;;;19.17;100.00;101231.34;4970606;28;20281;-48
2022/06/22 04:50:29;;;;;;;25.53;12.67;;;;;;;19.29;100.00;101227.75;4978995;28;20293;-52
2022/06/22 04:52:59;;;;;;;20.00;11.37;;;;;;;19.31;100.00;101226.41;4974918;28;20263;-50
2022/06/22 04:55:27;;;;;;;22.93;12.80;;;;;;;19.28;100.00;101231.53;4976976;28;20272;-50
2022/06/22 04:58:00;;;;;;;18.73;11.70;;;;;;;19.30;100.00;101235.63;4979003;28;20285;-50
2022/06/22 05:00:29;;;;;;;21.57;11.40;;;;;;;19.24;100.00;101236.63;4973300;28;20266;-49
2022/06/22 05:03:00;;;;;;;22.87;10.87;;;;;;;19.17;100.00;101249.50;4975833;28;20284;-48
2022/06/22 05:05:30;;;;;;;17.13;9.70;;;;;;;19.17;100.00;101252.22;4975109;28;20292;-49
2022/06/22 05:08:22;;;;;;;18.17;12.00;;;;;;;19.25;100.00;101242.84;4976882;28;20273;-52
2022/06/22 05:10:54;;;;;;;19.83;11.37;;;;;;;19.13;100.00;101253.75;4980978;28;20288;-51
2022/06/22 05:13:25;;;;;;;19.93;11.13;;;;;;;19.25;100.00;101240.13;4977533;28;20333;-54
2022/06/22 05:15:54;;;;;;;23.93;12.53;;;;;;;19.08;100.00;101251.78;4980206;28;20278;-48
2022/06/22 05:18:24;;;;;;;20.67;12.17;;;;;;;18.66;100.00;101257.44;4977410;28;20284;-50
2022/06/22 05:21:25;;;;;;;22.20;12.10;;;;;;;18.96;100.00;101262.63;4979072;28;20365;-52
2022/06/22 05:23:58;;;;;;;21.93;12.80;;;;;;;18.89;100.00;101259.22;4971089;28;20278;-50
2022/06/22 05:26:28;;;;;;;19.10;11.03;;;;;;;19.33;100.00;101272.28;4976480;28;20316;-52
2022/06/22 05:29:04;;;;;;;19.97;12.03;;;;;;;19.48;100.00;101275.25;4976104;28;20324;-52
2022/06/22 05:31:42;;;;;;;22.80;12.55;;;;;;;19.58;100.00;101279.22;4973836;28;20285;-54
2022/06/22 05:34:13;;;;;;;21.83;11.50;;;;;;;19.81;100.00;101283.66;4977783;28;20094;-46
2022/06/22 05:36:45;;;;;;;18.03;9.07;;;;;;;19.77;100.00;101282.50;4977535;28;20284;-48
2022/06/22 05:39:12;;;;;;;27.80;12.03;;;;;;;19.75;100.00;101285.47;4976981;28;20280;-54
2022/06/22 05:41:41;;;;;;;19.40;11.30;;;;;;;19.86;100.00;101294.63;4977573;28;20270;-47
2022/06/22 05:44:13;;;;;;;21.33;11.33;;;;;;;19.43;100.00;101296.88;4975316;28;21294;-52
2022/06/22 05:46:50;;;;;;;15.57;9.03;;;;;;;19.07;100.00;101298.94;4969554;28;20289;-54
2022/06/22 05:49:16;;;;;;;;;;;;;;;19.52;100.00;101297.28;4973256;28;20274;-50
2022/06/22 05:51:55;;;;;;;18.00;11.47;;;;;;;19.44;100.00;101295.78;4968895;28;19920;-53
2022/06/22 05:54:28;;;;;;;22.60;12.67;;;;;;;19.47;100.00;101306.16;4974504;28;20102;-54
2022/06/22 05:57:09;;;;;;;19.47;11.17;;;;;;;19.86;100.00;101291.06;4968594;28;20293;-52
2022/06/22 05:59:53;;;;;;;19.83;11.03;;;;;;;20.20;100.00;101294.59;4971287;28;20269;-57
2022/06/22 06:02:22;;;;;;;23.10;11.27;;;;;;;20.21;100.00;101292.72;4962648;28;20349;-48
2022/06/22 06:05:16;;;;;;;19.47;10.13;;;;;;;20.42;100.00;101293.81;4974529;28;20341;-52
2022/06/22 06:07:46;;;;;;;19.97;10.17;;;;;;;20.61;100.00;101293.53;4971046;28;20324;-52
2022/06/22 06:10:34;;;;;;;16.40;8.93;;;;;;;20.66;100.00;101295.50;4968860;28;20305;-53
2022/06/22 06:13:04;;;;;;;17.43;7.47;;;;;;;20.92;100.00;101291.22;4972944;28;20872;-48
2022/06/22 06:15:34;;;;;;;19.13;13.43;;;;;;;20.55;100.00;101291.81;4968325;28;20270;-49
2022/06/22 06:18:01;;;;;;;14.67;10.53;;;;;;;20.70;100.00;101294.72;4969229;28;20281;-51
2022/06/22 06:20:33;;;;;;;24.37;10.20;;;;;;;20.62;100.00;101295.97;4970250;28;20285;-53
2022/06/22 06:23:05;;;;;;;20.97;9.40;;;;;;;20.78;100.00;101299.72;4967657;28;20270;-52
2022/06/22 06:28:35;;;;;;;14.98;9.50;;;;;;;21.36;100.00;101301.19;4970101;28;20372;-49
2022/06/22 06:31:10;;;;;;;20.00;9.80;;;;;;;20.99;100.00;101291.84;4968548;28;20031;-51
2022/06/22 06:33:39;;;;;;;20.77;10.63;;;;;;;21.28;100.00;101296.22;4972829;28;20276;-53
2022/06/22 06:36:18;;;;;;;17.37;10.23;;;;;;;21.35;100.00;101305.81;4966649;28;20361;-51
2022/06/22 06:38:53;;;;;;;18.37;9.80;;;;;;;21.43;100.00;101309.97;4964895;28;20054;-53
2022/06/22 06:41:23;;;;;;;17.87;9.07;;;;;;;21.80;100.00;101313.84;4974632;28;20038;-53
2022/06/22 06:43:59;;;;;;;20.53;9.63;;;;;;;21.60;100.00;101315.28;4974877;28;20060;-51
2022/06/22 06:46:46;;;;;;;18.73;8.97;;;;;;;21.67;100.00;101306.13;4971743;28;20035;-50
2022/06/22 06:49:40;;;;;;;17.70;8.93;;;;;;;21.39;100.00;101302.56;4972558;28;20107;-50
2022/06/22 06:52:20;;;;;;;19.43;9.77;;;;;;;21.70;100.00;101300.97;4971291;28;20094;-53
2022/06/22 06:54:56;;;;;;;19.27;10.20;;;;;;;21.96;100.00;101297.66;4970308;28;20054;-51
2022/06/22 06:57:22;;;;;;;22.80;13.05;;;;;;;22.10;100.00;101298.81;4972837;28;20176;-53
2022/06/22 06:59:53;;;;;;;20.60;8.95;;;;;;;21.85;100.00;101297.56;4975313;28;20039;-50
2022/06/22 07:02:32;;;;;;;15.63;7.80;;;;;;;22.16;100.00;101292.34;4973010;28;20044;-52
2022/06/22 07:05:00;;;;;;;20.87;9.90;;;;;;;22.23;100.00;101291.28;4971917;28;20035;-52
2022/06/22 07:07:36;;;;;;;14.30;7.27;;;;;;;22.26;100.00;101282.59;4977200;28;20089;-50
2022/06/22 07:10:18;;;;;;;14.50;8.60;;;;;;;22.31;100.00;101279.88;4977703;28;20039;-55
2022/06/22 07:12:58;;;;;;;23.07;9.13;;;;;;;22.25;100.00;101283.66;4970258;28;20058;-51
2022/06/22 07:15:29;;;;;;;16.13;6.37;;;;;;;22.29;100.00;101282.88;4969947;28;20244;-51
2022/06/22 07:18:00;;;;;;;15.27;8.47;;;;;;;22.58;100.00;101287.13;4971656;28;20042;-53
2022/06/22 07:20:39;;;;;;;14.33;7.27;;;;;;;22.73;100.00;101294.56;4971783;28;20036;-51
2022/06/22 07:23:34;;;;;;;16.33;7.23;;;;;;;23.02;100.00;101305.03;4975835;28;20037;-55
2022/06/22 07:26:10;;;;;;;18.60;8.30;;;;;;;23.28;100.00;101310.56;4968915;28;20098;-52
2022/06/22 07:28:41;;;;;;;15.87;6.23;;;;;;;23.07;100.00;101305.03;4976527;28;20035;-54
2022/06/22 07:31:22;;;;;;;15.57;8.00;;;;;;;23.11;100.00;101310.78;4971841;28;20099;-52
2022/06/22 07:33:54;;;;;;;12.30;6.63;;;;;;;23.31;100.00;101299.09;4971589;28;20047;-54
2022/06/22 07:36:37;;;;;;;9.93;5.20;;;;;;;22.96;100.00;101296.00;4970122;28;20540;-54
2022/06/22 07:39:12;;;;;;;17.27;8.13;;;;;;;23.09;100.00;101293.88;4970546;28;20039;-56
2022/06/22 07:41:38;;;;;;;13.10;6.90;;;;;;;23.36;100.00;101284.66;4966932;28;20069;-54
2022/06/22 07:44:15;;;;;;;8.13;5.75;;;;;;;23.55;100.00;101288.50;4972671;28;20034;-54
2022/06/22 07:46:49;;;;;;;;;;;;;;;23.47;100.00;101280.84;4978182;28;20114;-54
2022/06/22 07:49:30;;;;;;;18.03;6.10;;;;;;;23.48;100.00;101279.75;4971569;28;19923;-52
2022/06/22 07:51:58;;;;;;;47.47;21.93;;;;;;;23.96;100.00;101270.44;4974293;28;20130;-50
2022/06/22 07:54:33;;;;;;;43.70;22.07;;;;;;;24.24;100.00;101268.22;4974690;28;20047;-52
2022/06/22 07:57:17;;;;;;;45.70;24.03;;;;;;;23.67;100.00;101269.13;4979505;28;20031;-52
2022/06/22 07:59:45;;;;;;;170.93;81.73;;;;;;;23.04;100.00;101264.66;4978610;28;20049;-52
2022/06/22 08:02:19;;;;;;;12.97;6.43;;;;;;;23.50;100.00;101266.63;4969072;28;20062;-52
2022/06/22 08:04:59;;;;;;;16.37;9.43;;;;;;;23.78;100.00;101261.72;4971621;28;20023;-57
2022/06/22 08:07:37;;;;;;;14.33;7.70;;;;;;;24.13;100.00;101270.97;4973895;28;20035;-54
2022/06/22 08:10:05;;;;;;;16.03;8.83;;;;;;;24.09;100.00;101272.63;4976267;28;20039;-55
2022/06/22 08:12:37;;;;;;;12.60;5.87;;;;;;;24.15;100.00;101270.72;4979226;28;20042;-54
2022/06/22 08:15:07;;;;;;;25.10;10.80;;;;;;;24.13;100.00;101272.91;4971760;28;20078;-54
2022/06/22 08:17:41;;;;;;;17.67;5.43;;;;;;;24.11;100.00;101270.44;4975949;28;20054;-56
2022/06/22 08:20:14;;;;;;;12.37;6.43;;;;;;;24.28;100.00;101272.84;4965999;28;20034;-51
2022/06/22 08:22:42;;;;;;;8.03;4.70;;;;;;;24.06;100.00;101276.72;4976097;28;20062;-54
2022/06/22 08:25:08;;;;;;;12.17;6.87;;;;;;;24.46;100.00;101279.63;4974863;28;20031;-53
2022/06/22 08:27:34;;;;;;;10.00;3.63;;;;;;;24.51;100.00;101286.19;4978885;28;20070;-57
2022/06/22 08:30:00;;;;;;;9.27;4.88;;;;;;;24.68;100.00;101281.19;4978117;28;20031;-50
2022/06/22 08:32:32;;;;;;;9.43;4.27;;;;;;;24.73;100.00;101272.97;4971655;28;20058;-54
2022/06/22 08:35:04;;;;;;;9.73;4.43;;;;;;;24.95;100.00;101279.16;4972884;28;20051;-54
2022/06/22 08:37:41;;;;;;;9.20;4.30;;;;;;;24.98;100.00;101267.66;4972333;28;20042;-55
2022/06/22 08:40:09;;;;;;;8.47;4.27;;;;;;;24.92;100.00;101275.88;4970155;28;20034;-54
2022/06/22 08:42:52;;;;;;;7.67;3.70;;;;;;;24.79;100.00;101275.69;4969757;28;20099;-50
2022/06/22 08:45:52;;;;;;;10.93;5.13;;;;;;;24.96;100.00;101272.59;4968529;28;20055;-55
2022/06/22 08:48:42;;;;;;;7.73;3.97;;;;;;;24.96;100.00;101275.31;4967752;28;20038;-55
2022/06/22 08:51:41;;;;;;;6.80;3.27;;;;;;;25.30;100.00;101278.09;4972426;28;20038;-53
2022/06/22 08:54:25;;;;;;;8.67;3.60;;;;;;;25.30;100.00;101274.56;4970676;28;20032;-52
2022/06/22 08:57:26;;;;;;;4.67;2.43;;;;;;;25.62;100.00;101287.75;4972274;28;20028;-50
2022/06/22 09:00:20;;;;;;;9.80;3.27;;;;;;;25.17;100.00;101293.25;4971821;28;20054;-53
2022/06/22 09:03:23;;;;;;;5.30;2.47;;;;;;;25.08;100.00;101288.66;4973465;28;20019;-55
2022/06/22 09:05:59;;;;;;;4.90;2.40;;;;;;;25.42;100.00;101287.91;4968109;28;20040;-56
2022/06/22 09:08:54;;;;;;;6.38;2.67;;;;;;;25.62;100.00;101290.50;4967228;28;20112;-51
2022/06/22 09:11:49;;;;;;;8.57;3.30;;;;;;;25.40;100.00;101290.09;4970447;28;20034;-51
2022/06/22 09:14:24;;;;;;;7.37;2.70;;;;;;;25.65;100.00;101288.28;4972362;28;20043;-51
2022/06/22 09:17:26;;;;;;;15.70;3.10;;;;;;;25.24;100.00;101290.19;4968833;28;20046;-51
2022/06/22 09:20:03;;;;;;;7.80;2.50;;;;;;;25.41;100.00;101295.28;4975895;28;20033;-52
2022/06/22 09:22:57;;;;;;;20.67;9.63;;;;;;;25.59;100.00;101287.50;4964300;28;20051;-52
2022/06/22 09:26:04;;;;;;;7.53;3.10;;;;;;;25.61;100.00;101286.13;4966773;28;20546;-52
2022/06/22 09:28:45;;;;;;;41.40;19.67;;;;;;;25.78;100.00;101290.34;4967520;28;20058;-50
2022/06/22 09:31:31;;;;;;;70.03;37.73;;;;;;;26.16;100.00;101282.34;4971256;28;20026;-53
2022/06/22 09:34:14;;;;;;;23.33;12.25;;;;;;;26.16;100.00;101276.84;4977638;28;20050;-51
2022/06/22 09:37:13;;;;;;;12.00;5.17;;;;;;;26.06;98.20;101280.50;4970937;28;20074;-53
2022/06/22 09:40:03;;;;;;;13.63;5.47;;;;;;;26.49;96.40;101282.50;4973826;28;20041;-54
2022/06/22 09:43:06;;;;;;;14.50;6.67;;;;;;;26.64;93.21;101275.19;4973063;28;20041;-48
2022/06/22 09:46:03;;;;;;;19.47;9.87;;;;;;;27.38;81.32;101284.88;4973047;28;20104;-48
2022/06/22 09:48:56;;;;;;;13.25;6.78;;;;;;;27.78;71.95;101287.25;4969218;28;20073;-53
2022/06/22 09:51:33;;;;;;;14.40;5.88;;;;;;;28.29;76.17;101291.00;4967208;28;20043;-54
2022/06/22 09:57:44;;;;;;;15.10;8.00;;;;;;;29.80;66.36;101295.91;4968248;28;20042;-54
2022/06/22 10:00:27;;;;;;;8.68;4.93;;;;;;;30.73;59.97;101305.22;4975679;28;20094;-51
2022/06/22 10:03:11;;;;;;;7.68;3.10;;;;;;;31.33;57.68;101313.88;4969274;28;20042;-52
2022/06/22 10:06:05;;;;;;;7.80;3.88;;;;;;;31.81;54.75;101330.56;4971022;28;20035;-55
2022/06/22 10:09:06;;;;;;;11.88;5.03;;;;;;;32.68;50.83;101325.81;4981101;28;20043;-53
2022/06/22 10:11:39;;;;;;;5.05;2.15;;;;;;;32.88;50.07;101326.19;4979753;28;20042;-52
2022/06/22 10:14:25;;;;;;;46.15;26.05;;;;;;;33.97;45.14;101328.16;4972360;28;20065;-53
2022/06/22 10:17:09;;;;;;;26.20;13.73;;;;;;;34.40;41.95;101323.19;4964869;28;20071;-50
2022/06/22 10:20:14;;;;;;;11.38;5.53;;;;;;;34.56;42.27;101317.78;4969050;28;20058;-52
2022/06/22 10:23:11;;;;;;;9.30;6.03;;;;;;;35.07;40.30;101321.28;4971442;28;20039;-52
2022/06/22 10:25:58;;;;;;;14.05;6.43;;;;;;;35.17;40.21;101318.00;4969338;28;20039;-52
2022/06/22 10:28:45;;;;;;;12.27;7.45;;;;;;;34.87;42.41;101321.06;4973307;28;20042;-53
2022/06/22 10:31:17;;;;;;;12.00;6.07;;;;;;;34.71;45.07;101313.47;4976675;28;20101;-50
2022/06/22 10:34:09;;;;;;;8.70;5.22;;;;;;;34.55;40.75;101318.13;4973595;28;20054;-49
2022/06/22 10:37:04;;;;;;;11.43;6.05;;;;;;;34.66;40.90;101310.94;4976230;28;20035;-50
2022/06/22 10:39:49;;;;;;;9.85;6.43;;;;;;;35.10;40.03;101312.22;4977061;28;20034;-50
2022/06/22 10:45:40;;;;;;;4.70;2.25;;;;;;;35.93;38.72;101288.59;4968153;28;20125;-53
2022/06/22 10:48:43;;;;;;;3.60;2.10;;;;;;;36.37;39.07;101298.81;4973373;28;20057;-52
2022/06/22 10:51:09;;;;;;;3.22;1.50;;;;;;;37.24;33.67;101297.88;4972900;28;20039;-50
2022/06/22 10:53:53;;;;;;;6.50;4.20;;;;;;;37.56;32.39;101300.50;4968736;28;20046;-52
2022/06/22 10:56:57;;;;;;;5.70;2.00;;;;;;;37.66;33.74;101296.28;4975838;28;20070;-55
2022/06/22 10:59:38;;;;;;;5.78;2.00;;;;;;;37.73;34.88;101290.84;4972152;28;20038;-50
2022/06/22 11:02:23;;;;;;;12.82;5.55;;;;;;;37.40;31.55;101298.59;4968556;28;20066;-51
2022/06/22 11:05:23;;;;;;;8.10;3.15;;;;;;;38.36;29.92;101302.63;4972528;28;20034;-53
2022/06/22 11:08:09;;;;;;;5.18;2.30;;;;;;;38.62;30.04;101302.97;4977160;28;20035;-53
2022/06/22 11:10:49;;;;;;;8.15;3.72;;;;;;;38.71;32.48;101297.91;4977791;28;20046;-54
2022/06/22 11:13:37;;;;;;;5.93;2.53;;;;;;;38.69;30.65;101291.91;4975279;28;20054;-53
2022/06/22 11:16:08;;;;;;;6.20;1.90;;;;;;;39.27;27.88;101293.41;4976103;28;20047;-55
2022/06/22 11:19:02;;;;;;;7.30;2.10;;;;;;;39.38;29.63;101293.53;4975501;28;20090;-52
2022/06/22 11:21:47;;;;;;;10.10;2.40;;;;;;;40.30;27.85;101281.88;4981010;28;20543;-53
2022/06/22 11:25:15;;;;;;;3.35;2.00;;;;;;;39.98;27.28;101283.25;4974408;28;20035;-52
2022/06/22 11:31:10;;;;;;;4.93;2.00;;;;;;;39.86;27.58;101273.19;4971577;28;20032;-51
2022/06/22 11:34:08;;;;;;;6.13;1.58;;;;;;;40.76;26.54;101274.94;4967668;28;20077;-54
2022/06/22 11:36:37;;;;;;;4.63;1.40;;;;;;;40.73;26.83;101272.94;4963679;28;20057;-53
2022/06/22 11:39:27;;;;;;;7.07;1.45;;;;;;;41.57;25.80;101269.09;4972982;28;20102;-53
2022/06/22 11:42:08;;;;;;;5.97;2.03;;;;;;;41.32;25.73;101271.09;4972734;28;20061;-57
2022/06/22 11:48:14;;;;;;;7.30;3.47;;;;;;;41.71;24.24;101265.50;4967185;28;20043;-56
2022/06/22 11:50:45;;;;;;;7.93;4.63;;;;;;;41.69;25.08;101262.31;4969238;28;20103;-55
2022/06/22 11:53:56;;;;;;;6.55;3.65;;;;;;;42.22;24.74;101247.81;4968298;28;20031;-56
2022/06/22 11:56:39;;;;;;;5.43;2.53;;;;;;;40.88;25.61;101262.56;4974004;28;20027;-55
2022/06/22 11:59:39;;;;;;;10.07;4.88;;;;;;;41.84;23.22;101265.91;4966040;28;20035;-53
2022/06/22 12:02:34;;;;;;;12.82;4.70;;;;;;;41.74;24.20;101271.53;4972475;28;20055;-54
2022/06/22 12:05:19;;;;;;;;;;;;;;;41.88;23.63;101270.69;4972716;28;20031;-54
2022/06/22 12:08:26;;;;;;;7.03;2.45;;;;;;;42.42;21.85;101262.94;4978527;28;19917;-56
2022/06/22 12:11:23;;;;;;;5.80;1.67;;;;;;;42.34;21.85;101267.00;4974592;28;20055;-52
2022/06/22 12:17:27;;;;;;;8.10;4.90;;;;;;;43.02;24.82;101253.88;4976952;28;20031;-55
2022/06/22 12:20:18;;;;;;;17.27;4.25;;;;;;;43.72;21.21;101249.34;4975187;28;20063;-55
2022/06/22 12:23:21;;;;;;;7.22;1.58;;;;;;;43.78;20.97;101256.13;4977173;28;20035;-56
2022/06/22 12:26:04;;;;;;;6.72;2.30;;;;;;;44.08;21.01;101251.81;4967342;28;20035;-54
2022/06/22 12:28:47;;;;;;;8.73;3.08;;;;;;;43.89;20.85;101255.22;4973000;28;20031;-56
2022/06/22 12:31:17;;;;;;;6.72;2.75;;;;;;;43.17;21.37;101248.97;4976399;28;20036;-51
2022/06/22 12:34:02;;;;;;;5.25;1.90;;;;;;;43.91;19.87;101242.31;4977629;28;20042;-54